createdAt,value
2019-02-06T00:01:02.837Z,99195.77
2019-02-06T00:03:32.979Z,99196.06
2019-02-06T00:06:03.179Z,99198.56
2019-02-06T00:08:33.364Z,99191.70
2019-02-06T00:11:03.878Z,99188.61
2019-02-06T00:13:34.368Z,99194.60
2019-02-06T00:16:07.868Z,99201.05
2019-02-06T00:18:38.217Z,99197.28
2019-02-06T00:21:08.801Z,99197.24
2019-02-06T00:23:38.979Z,99194.27
2019-02-06T00:26:09.321Z,99191.66
2019-02-06T00:28:39.475Z,99196.34
2019-02-06T00:31:09.998Z,99193.20
2019-02-06T00:33:40.242Z,99191.40
2019-02-06T00:36:10.803Z,99188.12
2019-02-06T00:38:41.174Z,99186.52
2019-02-06T00:41:11.729Z,99196.03
2019-02-06T00:43:41.872Z,99194.56
2019-02-06T00:46:12.063Z,99189.12
2019-02-06T00:48:43.301Z,99191.92
2019-02-06T00:51:14.683Z,99192.59
2019-02-06T00:53:44.944Z,99196.93
2019-02-06T00:56:15.404Z,99194.14
2019-02-06T00:58:45.570Z,99188.86
2019-02-06T01:01:15.971Z,99193.83
2019-02-06T01:03:46.208Z,99201.72
2019-02-06T01:06:16.492Z,99195.83
2019-02-06T01:08:47.320Z,99197.18
2019-02-06T01:11:17.918Z,99194.39
2019-02-06T01:13:48.164Z,99200.86
2019-02-06T01:16:18.403Z,99201.53
2019-02-06T01:18:48.569Z,99201.20
2019-02-06T01:21:18.796Z,99193.95
2019-02-06T01:23:48.936Z,99196.47
2019-02-06T01:26:19.117Z,99204.64
2019-02-06T01:28:49.449Z,99202.63
2019-02-06T01:31:25.390Z,99201.30
2019-02-06T01:33:55.605Z,99205.91
2019-02-06T01:36:26.665Z,99195.56
2019-02-06T01:38:57.028Z,99198.67
2019-02-06T01:41:27.297Z,99200.01
2019-02-06T01:43:57.437Z,99201.34
2019-02-06T01:46:27.710Z,99201.71
2019-02-06T01:48:58.245Z,99202.38
2019-02-06T01:51:28.878Z,99204.67
2019-02-06T01:53:59.123Z,99204.01
2019-02-06T01:56:29.308Z,99202.20
2019-02-06T01:58:59.495Z,99206.98
2019-02-06T02:01:29.863Z,99207.29
2019-02-06T02:04:00.019Z,99209.11
2019-02-06T02:06:30.536Z,99209.91
2019-02-06T02:09:01.787Z,99208.23
2019-02-06T02:11:33.214Z,99215.67
2019-02-06T02:14:03.484Z,99209.63
2019-02-06T02:16:33.749Z,99212.93
2019-02-06T02:19:04.874Z,99202.73
2019-02-06T02:21:35.170Z,99201.91
2019-02-06T02:24:06.460Z,99194.48
2019-02-06T02:26:36.674Z,99188.05
2019-02-06T02:29:06.827Z,99187.23
2019-02-06T02:31:36.975Z,99188.55
2019-02-06T02:34:07.080Z,99187.77
2019-02-06T02:36:37.249Z,99184.34
2019-02-06T02:39:09.947Z,99191.78
2019-02-06T02:41:40.326Z,99187.66
2019-02-06T02:44:10.531Z,99187.48
2019-02-06T02:46:41.140Z,99193.12
2019-02-06T02:49:11.292Z,99189.83
2019-02-06T02:51:44.457Z,99190.30
2019-02-06T02:54:14.463Z,99190.30
2019-02-06T02:56:44.783Z,99191.13
2019-02-06T02:59:15.809Z,99191.78
2019-02-06T03:01:54.051Z,99186.01
2019-02-06T03:04:28.926Z,99188.00
2019-02-06T03:06:59.085Z,99190.30
2019-02-06T03:09:29.283Z,99186.37
2019-02-06T03:11:59.587Z,99184.71
2019-02-06T03:14:30.049Z,99185.70
2019-02-06T03:17:03.171Z,99179.78
2019-02-06T03:19:32.869Z,99174.53
2019-02-06T03:22:03.453Z,99167.13
2019-02-06T03:24:34.241Z,99167.45
2019-02-06T03:27:04.397Z,99167.97
2019-02-06T03:29:34.858Z,99166.67
2019-02-06T03:32:04.994Z,99166.67
2019-02-06T03:34:35.361Z,99158.09
2019-02-06T03:37:05.476Z,99160.73
2019-02-06T03:39:36.125Z,99154.81
2019-02-06T03:42:06.579Z,99156.81
2019-02-06T03:44:36.769Z,99156.81
2019-02-06T03:47:07.008Z,99151.88
2019-02-06T03:49:37.262Z,99151.22
2019-02-06T03:52:07.511Z,99154.25
2019-02-06T03:54:37.666Z,99154.87
2019-02-06T03:57:07.986Z,99152.59
2019-02-06T03:59:38.132Z,99153.55
2019-02-06T04:02:08.285Z,99158.95
2019-02-06T04:04:38.499Z,99155.52
2019-02-06T04:07:08.937Z,99154.86
2019-02-06T04:09:39.213Z,99155.22
2019-02-06T04:12:10.007Z,99153.44
2019-02-06T04:14:40.308Z,99152.91
2019-02-06T04:17:10.596Z,99154.59
2019-02-06T04:19:40.783Z,99156.73
2019-02-06T04:22:11.511Z,99159.36
2019-02-06T04:24:42.031Z,99156.57
2019-02-06T04:27:12.185Z,99156.06
2019-02-06T04:29:43.072Z,99152.64
2019-02-06T04:32:13.595Z,99152.47
2019-02-06T04:34:43.758Z,99158.40
2019-02-06T04:37:13.894Z,99160.53
2019-02-06T04:39:44.194Z,99161.19
2019-02-06T04:42:14.487Z,99165.80
2019-02-06T04:44:44.774Z,99157.92
2019-02-06T04:47:15.040Z,99156.60
2019-02-06T04:49:45.806Z,99153.48
2019-02-06T04:52:16.243Z,99157.06
2019-02-06T04:54:46.507Z,99152.97
2019-02-06T04:57:16.742Z,99157.89
2019-02-06T04:59:46.916Z,99156.91
2019-02-06T05:02:17.187Z,99154.95
2019-02-06T05:04:47.371Z,99159.92
2019-02-06T05:07:19.757Z,99159.92
2019-02-06T05:09:50.596Z,99152.67
2019-02-06T05:12:20.870Z,99158.25
2019-02-06T05:14:51.055Z,99160.57
2019-02-06T05:17:22.153Z,99152.33
2019-02-06T05:19:52.405Z,99159.89
2019-02-06T05:22:22.563Z,99148.41
2019-02-06T05:24:52.760Z,99143.62
2019-02-06T05:27:22.930Z,99144.45
2019-02-06T05:29:53.573Z,99149.38
2019-02-06T05:32:24.271Z,99148.23
2019-02-06T05:34:54.433Z,99153.50
2019-02-06T05:37:32.090Z,99147.41
2019-02-06T05:39:56.683Z,99148.73
2019-02-06T05:42:27.012Z,99144.29
2019-02-06T05:44:57.184Z,99141.49
2019-02-06T05:47:28.391Z,99141.00
2019-02-06T05:49:58.643Z,99148.72
2019-02-06T05:52:28.851Z,99153.02
2019-02-06T05:54:59.019Z,99157.76
2019-02-06T05:57:29.331Z,99166.18
2019-02-06T06:00:00.615Z,99166.66
2019-02-06T06:02:31.141Z,99163.37
2019-02-06T06:05:01.544Z,99171.44
2019-02-06T06:07:44.141Z,99173.91
2019-02-06T06:10:04.813Z,99175.05
2019-02-06T06:12:35.142Z,99173.56
2019-02-06T06:15:06.321Z,99170.28
2019-02-06T06:17:36.778Z,99168.80
2019-02-06T06:20:08.671Z,99166.82
2019-02-06T06:22:38.964Z,99168.31
2019-02-06T06:25:10.248Z,99168.48
2019-02-06T06:27:40.488Z,99161.56
2019-02-06T06:30:13.282Z,99157.62
2019-02-06T06:32:43.605Z,99154.99
2019-02-06T06:35:14.496Z,99153.68
2019-02-06T06:37:57.078Z,99157.30
2019-02-06T06:40:19.743Z,99156.64
2019-02-06T06:42:50.399Z,99158.93
2019-02-06T06:45:22.218Z,99162.05
2019-02-06T06:47:52.665Z,99167.16
2019-02-06T06:50:24.330Z,99172.73
2019-02-06T06:52:54.756Z,99179.17
2019-02-06T06:55:25.284Z,99173.39
2019-02-06T06:57:55.417Z,99177.35
2019-02-06T07:00:27.360Z,99177.17
2019-02-06T07:02:57.593Z,99177.68
2019-02-06T07:05:27.795Z,99174.88
2019-02-06T07:08:09.056Z,99170.08
2019-02-06T07:10:31.034Z,99167.95
2019-02-06T07:13:01.424Z,99169.25
2019-02-06T07:15:36.123Z,99170.89
2019-02-06T07:18:06.579Z,99183.20
2019-02-06T07:20:36.927Z,99191.12
2019-02-06T07:23:07.293Z,99186.11
2019-02-06T07:25:37.981Z,99185.30
2019-02-06T07:28:08.276Z,99185.11
2019-02-06T07:30:38.512Z,99179.13
2019-02-06T07:33:08.682Z,99180.75
2019-02-06T07:35:39.328Z,99182.72
2019-02-06T07:38:22.338Z,99180.17
2019-02-06T07:40:42.102Z,99179.12
2019-02-06T07:43:12.356Z,99181.86
2019-02-06T07:45:42.558Z,99174.88
2019-02-06T07:48:12.746Z,99178.13
2019-02-06T07:50:43.853Z,99184.02
2019-02-06T07:53:14.329Z,99182.17
2019-02-06T07:55:44.637Z,99182.23
2019-02-06T07:58:14.943Z,99183.28
2019-02-06T08:00:45.112Z,99183.78
2019-02-06T08:03:15.644Z,99181.09
2019-02-06T08:05:46.174Z,99184.48
2019-02-06T08:08:16.540Z,99181.31
2019-02-06T08:10:46.686Z,99180.78
2019-02-06T08:13:17.160Z,99182.09
2019-02-06T08:15:47.367Z,99183.22
2019-02-06T08:18:18.305Z,99186.66
2019-02-06T08:20:48.610Z,99181.56
2019-02-06T08:23:19.387Z,99182.01
2019-02-06T08:25:49.736Z,99184.14
2019-02-06T08:28:20.247Z,99180.11
2019-02-06T08:30:50.399Z,99175.02
2019-02-06T08:33:20.925Z,99177.97
2019-02-06T08:35:51.265Z,99177.80
2019-02-06T08:38:21.650Z,99179.98
2019-02-06T08:40:51.828Z,99178.22
2019-02-06T08:43:22.290Z,99181.84
2019-02-06T08:45:54.620Z,99180.20
2019-02-06T08:48:25.106Z,99177.44
2019-02-06T08:50:55.533Z,99184.58
2019-02-06T08:53:25.883Z,99176.19
2019-02-06T08:55:56.071Z,99171.48
2019-02-06T08:58:26.246Z,99172.80
2019-02-06T09:00:56.574Z,99169.80
2019-02-06T09:03:26.942Z,99170.74
2019-02-06T09:05:57.094Z,99166.95
2019-02-06T09:08:27.364Z,99159.51
2019-02-06T09:10:57.585Z,99156.05
2019-02-06T09:13:28.091Z,99162.74
2019-02-06T09:15:58.825Z,99156.71
2019-02-06T09:18:29.474Z,99163.45
2019-02-06T09:20:59.724Z,99149.22
2019-02-06T09:23:30.147Z,99150.20
2019-02-06T09:26:00.343Z,99155.81
2019-02-06T09:28:31.841Z,99153.20
2019-02-06T09:31:02.351Z,99151.37
2019-02-06T09:33:32.746Z,99154.77
2019-02-06T09:36:03.267Z,99156.81
2019-02-06T09:38:33.646Z,99153.09
2019-02-06T09:41:04.547Z,99156.62
2019-02-06T09:43:34.790Z,99157.31
2019-02-06T09:46:05.708Z,99162.59
2019-02-06T09:48:36.123Z,99155.92
2019-02-06T09:51:06.312Z,99158.36
2019-02-06T09:53:36.620Z,99160.78
2019-02-06T09:56:06.944Z,99152.42
2019-02-06T09:58:37.755Z,99159.84
2019-02-06T10:01:08.123Z,99153.33
2019-02-06T10:03:38.406Z,99146.56
2019-02-06T10:06:08.646Z,99141.54
2019-02-06T10:08:38.812Z,99143.80
2019-02-06T10:11:09.679Z,99134.93
2019-02-06T10:13:40.259Z,99134.56
2019-02-06T10:16:10.972Z,99135.74
2019-02-06T10:18:41.337Z,99129.58
2019-02-06T10:21:11.786Z,99129.40
2019-02-06T10:23:42.524Z,99129.06
2019-02-06T10:26:13.059Z,99122.20
2019-02-06T10:28:43.257Z,99125.62
2019-02-06T10:31:13.707Z,99122.20
2019-02-06T10:33:44.494Z,99119.78
2019-02-06T10:36:15.318Z,99115.94
2019-02-06T10:38:46.076Z,99112.00
2019-02-06T10:41:16.381Z,99102.81
2019-02-06T10:43:47.177Z,99103.39
2019-02-06T10:46:18.318Z,99094.30
2019-02-06T10:48:50.184Z,99094.11
2019-02-06T10:51:20.667Z,99100.27
2019-02-06T10:53:51.177Z,99094.17
2019-02-06T10:56:21.469Z,99094.21
2019-02-06T10:58:52.308Z,99082.56
2019-02-06T11:01:27.182Z,99075.97
2019-02-06T11:03:57.622Z,99068.88
2019-02-06T11:06:27.793Z,99070.52
2019-02-06T11:08:58.083Z,99057.95
2019-02-06T11:11:28.480Z,99065.27
2019-02-06T11:13:59.173Z,99054.93
2019-02-06T11:16:29.471Z,99049.76
2019-02-06T11:18:59.888Z,99044.95
2019-02-06T11:21:30.118Z,99045.59
2019-02-06T11:24:01.177Z,99038.77
2019-02-06T11:26:31.562Z,99033.02
2019-02-06T11:29:01.798Z,99041.66
2019-02-06T11:31:31.971Z,99028.13
2019-02-06T11:34:03.681Z,99024.13
2019-02-06T11:36:34.963Z,99020.01
2019-02-06T11:39:12.089Z,99012.89
2019-02-06T11:41:42.512Z,99008.30
2019-02-06T11:44:15.084Z,99001.84
2019-02-06T11:46:45.577Z,98998.16
2019-02-06T11:49:16.918Z,98994.87
2019-02-06T11:51:47.167Z,98988.69
2019-02-06T11:54:17.980Z,98983.16
2019-02-06T11:56:48.318Z,98986.82
2019-02-06T11:59:19.434Z,98977.52
2019-02-06T12:01:52.637Z,98979.77
2019-02-06T12:04:23.739Z,98971.39
2019-02-06T12:06:53.973Z,98976.41
2019-02-06T12:09:24.263Z,98974.55
2019-02-06T12:11:54.469Z,98963.70
2019-02-06T12:14:24.735Z,98963.03
2019-02-06T12:16:55.028Z,98953.38
2019-02-06T12:19:25.249Z,98944.80
2019-02-06T12:21:55.410Z,98939.88
2019-02-06T12:24:25.564Z,98932.44
2019-02-06T12:26:56.428Z,98937.45
2019-02-06T12:29:26.806Z,98930.76
2019-02-06T12:31:57.007Z,98932.34
2019-02-06T12:34:27.337Z,98919.85
2019-02-06T12:36:57.510Z,98919.73
2019-02-06T12:39:27.727Z,98913.23
2019-02-06T12:41:58.853Z,98902.08
2019-02-06T12:44:29.825Z,98898.87
2019-02-06T12:47:01.312Z,98890.52
2019-02-06T12:49:31.598Z,98883.77
2019-02-06T12:52:02.103Z,98890.39
2019-02-06T12:54:32.645Z,98890.48
2019-02-06T12:57:02.992Z,98889.94
2019-02-06T12:59:33.191Z,98880.98
2019-02-06T13:02:03.828Z,98883.30
2019-02-06T13:04:34.183Z,98877.66
2019-02-06T13:07:04.621Z,98880.23
2019-02-06T13:09:35.101Z,98875.43
2019-02-06T13:12:09.499Z,98863.48
2019-02-06T13:14:40.098Z,98867.71
2019-02-06T13:17:10.333Z,98858.33
2019-02-06T13:19:41.294Z,98855.23
2019-02-06T13:22:13.581Z,98860.64
2019-02-06T13:24:44.154Z,98858.30
2019-02-06T13:27:14.881Z,98851.70
2019-02-06T13:29:46.832Z,98845.53
2019-02-06T13:32:17.255Z,98843.86
2019-02-06T13:34:47.567Z,98835.78
2019-02-06T13:37:17.904Z,98839.86
2019-02-06T13:39:48.863Z,98830.27
2019-02-06T13:42:19.223Z,98825.77
2019-02-06T13:44:49.504Z,98824.23
2019-02-06T13:47:20.057Z,98820.84
2019-02-06T13:49:53.618Z,98812.94
2019-02-06T13:52:24.894Z,98812.94
2019-02-06T13:54:55.242Z,98809.81
2019-02-06T13:57:33.586Z,98802.42
2019-02-06T13:59:58.165Z,98806.14
2019-02-06T14:02:28.821Z,98799.91
2019-02-06T14:04:59.702Z,98794.25
2019-02-06T14:07:30.117Z,98788.30
2019-02-06T14:10:00.748Z,98786.05
2019-02-06T14:12:31.179Z,98792.61
2019-02-06T14:15:01.533Z,98782.38
2019-02-06T14:17:31.921Z,98775.90
2019-02-06T14:20:02.737Z,98769.26
2019-02-06T14:22:33.443Z,98768.23
2019-02-06T14:25:21.958Z,98766.19
2019-02-06T14:28:06.973Z,98760.28
2019-02-06T14:30:46.588Z,98755.88
2019-02-06T14:33:40.299Z,98757.39
2019-02-06T14:36:56.239Z,98754.56
2019-02-06T14:39:48.428Z,98756.55
2019-02-06T14:42:45.147Z,98745.38
2019-02-06T14:46:02.328Z,98737.53
2019-02-06T14:48:56.059Z,98741.45
2019-02-06T14:52:03.164Z,98730.11
2019-02-06T14:55:02.537Z,98730.11
2019-02-06T14:58:15.564Z,98727.35
2019-02-06T15:01:33.443Z,98724.06
2019-02-06T15:04:39.996Z,98719.97
2019-02-06T15:07:41.279Z,98712.89
2019-02-06T15:10:48.032Z,98710.94
2019-02-06T15:13:58.285Z,98708.88
2019-02-06T15:17:05.760Z,98706.23
2019-02-06T15:20:32.785Z,98702.63
2019-02-06T15:23:38.057Z,98697.80
2019-02-06T15:26:24.238Z,98699.52
2019-02-06T15:29:16.833Z,98698.34
2019-02-06T15:32:30.784Z,98692.97
2019-02-06T15:35:40.745Z,98691.60
2019-02-06T15:38:43.594Z,98690.52
2019-02-06T15:41:33.923Z,98682.60
2019-02-06T15:44:24.497Z,98686.08
2019-02-06T15:47:33.093Z,98680.98
2019-02-06T15:50:39.908Z,98676.05
2019-02-06T15:53:42.694Z,98681.95
2019-02-06T15:56:47.018Z,98676.91
2019-02-06T15:59:42.847Z,98679.39
2019-02-06T16:02:55.821Z,98677.56
2019-02-06T16:06:11.541Z,98665.52
2019-02-06T16:09:15.619Z,98665.47
2019-02-06T16:12:17.954Z,98658.47
2019-02-06T16:15:20.922Z,98658.95
2019-02-06T16:18:47.640Z,98657.56
2019-02-06T16:21:53.205Z,98655.24
2019-02-06T16:24:57.390Z,98662.88
2019-02-06T16:28:08.109Z,98653.91
2019-02-06T16:30:54.296Z,98658.34
2019-02-06T16:34:00.075Z,98661.20
2019-02-06T16:36:53.737Z,98657.03
2019-02-06T16:39:45.690Z,98657.63
2019-02-06T16:42:51.806Z,98652.09
2019-02-06T16:46:10.668Z,98648.70
2019-02-06T16:49:55.853Z,98652.83
2019-02-06T16:53:04.737Z,98654.45
2019-02-06T16:56:25.882Z,98656.77
2019-02-06T16:59:52.212Z,98660.28
2019-02-06T17:02:53.024Z,98655.58
2019-02-06T17:06:00.362Z,98662.75
2019-02-06T17:09:01.553Z,98654.60
2019-02-06T17:12:04.582Z,98654.31
2019-02-06T17:15:20.220Z,98650.56
2019-02-06T17:18:33.619Z,98648.17
2019-02-06T17:21:14.840Z,98647.66
2019-02-06T17:24:00.200Z,98649.70
2019-02-06T17:27:14.664Z,98650.03
2019-02-06T17:30:15.807Z,98653.89
2019-02-06T17:33:21.125Z,98655.41
2019-02-06T17:36:27.478Z,98652.94
2019-02-06T17:39:42.848Z,98644.97
2019-02-06T17:43:07.609Z,98641.99
2019-02-06T17:46:18.863Z,98632.38
2019-02-06T17:49:16.025Z,98640.34
2019-02-06T17:52:10.452Z,98639.33
2019-02-06T17:55:07.867Z,98642.80
2019-02-06T17:57:38.361Z,98636.48
2019-02-06T18:00:16.272Z,98637.57
2019-02-06T18:02:49.209Z,98631.39
2019-02-06T18:05:19.945Z,98631.14
2019-02-06T18:07:50.652Z,98631.00
2019-02-06T18:10:21.894Z,98631.99
2019-02-06T18:12:53.322Z,98626.92
2019-02-06T18:15:24.173Z,98624.48
2019-02-06T18:17:55.673Z,98611.22
2019-02-06T18:20:28.468Z,98617.08
2019-02-06T18:22:59.179Z,98611.16
2019-02-06T18:25:29.903Z,98603.95
2019-02-06T18:28:00.329Z,98609.74
2019-02-06T18:30:34.008Z,98607.09
2019-02-06T18:33:05.265Z,98607.95
2019-02-06T18:35:35.599Z,98611.66
2019-02-06T18:38:07.817Z,98609.44
2019-02-06T18:40:40.775Z,98605.39
2019-02-06T18:43:11.164Z,98605.39
2019-02-06T18:45:42.926Z,98602.19
2019-02-06T18:48:13.597Z,98605.08
2019-02-06T18:50:44.235Z,98598.36
2019-02-06T18:53:15.131Z,98596.30
2019-02-06T18:55:45.963Z,98597.69
2019-02-06T18:58:16.797Z,98595.84
2019-02-06T19:00:47.496Z,98595.51
2019-02-06T19:03:20.624Z,98596.53
2019-02-06T19:05:52.331Z,98600.64
2019-02-06T19:08:23.054Z,98600.64
2019-02-06T19:10:53.979Z,98598.63
2019-02-06T19:13:24.328Z,98598.77
2019-02-06T19:15:56.490Z,98593.25
2019-02-06T19:18:26.747Z,98593.25
2019-02-06T19:20:57.518Z,98590.22
2019-02-06T19:23:27.861Z,98588.30
2019-02-06T19:25:58.727Z,98585.38
2019-02-06T19:28:29.081Z,98590.23
2019-02-06T19:31:02.556Z,98585.19
2019-02-06T19:33:32.853Z,98583.30
2019-02-06T19:36:03.357Z,98581.20
2019-02-06T19:38:33.930Z,98577.50
2019-02-06T19:41:04.829Z,98579.88
2019-02-06T19:43:44.073Z,98564.13
2019-02-06T19:46:16.255Z,98569.58
2019-02-06T19:48:49.608Z,98560.33
2019-02-06T19:51:20.150Z,98564.25
2019-02-06T19:53:51.090Z,98563.24
2019-02-06T19:56:24.600Z,98555.79
2019-02-06T19:58:54.902Z,98549.51
2019-02-06T20:01:25.347Z,98547.49
2019-02-06T20:03:55.643Z,98546.61
2019-02-06T20:06:32.287Z,98546.11
2019-02-06T20:09:15.265Z,98541.81
2019-02-06T20:11:45.823Z,98536.86
2019-02-06T20:14:16.360Z,98531.55
2019-02-06T20:16:46.975Z,98526.38
2019-02-06T20:19:20.479Z,98532.94
2019-02-06T20:21:50.052Z,98532.94
2019-02-06T20:24:20.326Z,98528.77
2019-02-06T20:26:50.740Z,98526.28
2019-02-06T20:29:21.638Z,98526.78
2019-02-06T20:31:51.898Z,98519.17
2019-02-06T20:34:22.373Z,98516.73
2019-02-06T20:36:53.634Z,98527.03
2019-02-06T20:39:24.382Z,98515.00
2019-02-06T20:41:54.673Z,98508.63
2019-02-06T20:44:25.186Z,98506.38
2019-02-06T20:46:55.967Z,98501.70
2019-02-06T20:49:26.562Z,98502.14
2019-02-06T20:51:56.829Z,98499.13
2019-02-06T20:54:27.788Z,98502.69
2019-02-06T20:56:58.181Z,98509.70
2019-02-06T20:59:28.889Z,98513.59
2019-02-06T21:01:59.485Z,98524.91
2019-02-06T21:04:30.235Z,98524.02
2019-02-06T21:07:00.984Z,98519.55
2019-02-06T21:09:31.736Z,98521.16
2019-02-06T21:12:02.216Z,98509.48
2019-02-06T21:14:33.034Z,98518.05
2019-02-06T21:17:03.659Z,98516.11
2019-02-06T21:19:34.450Z,98512.64
2019-02-06T21:22:05.574Z,98514.67
2019-02-06T21:24:35.948Z,98507.95
2019-02-06T21:27:06.318Z,98502.88
2019-02-06T21:29:36.719Z,98512.27
2019-02-06T21:32:07.488Z,98505.65
2019-02-06T21:34:37.872Z,98513.88
2019-02-06T21:37:08.449Z,98508.80
2019-02-06T21:39:39.078Z,98504.41
2019-02-06T21:42:09.479Z,98497.80
2019-02-06T21:44:39.741Z,98495.25
2019-02-06T21:47:11.309Z,98494.34
2019-02-06T21:49:41.851Z,98482.95
2019-02-06T21:52:12.371Z,98482.95
2019-02-06T21:54:43.024Z,98482.53
2019-02-06T21:57:13.461Z,98478.27
2019-02-06T21:59:43.693Z,98478.66
2019-02-06T22:02:14.678Z,98474.41
2019-02-06T22:04:47.652Z,98468.41
2019-02-06T22:07:18.220Z,98464.83
2019-02-06T22:09:48.494Z,98470.73
2019-02-06T22:12:19.025Z,98467.69
2019-02-06T22:14:49.470Z,98460.86
2019-02-06T22:17:20.729Z,98459.03
2019-02-06T22:19:51.094Z,98452.92
2019-02-06T22:22:21.344Z,98470.02
2019-02-06T22:24:52.229Z,98465.75
2019-02-06T22:27:22.692Z,98459.85
2019-02-06T22:29:52.979Z,98462.89
2019-02-06T22:32:23.565Z,98457.50
2019-02-06T22:34:54.004Z,98457.50
2019-02-06T22:37:24.472Z,98463.92
2019-02-06T22:39:54.778Z,98463.11
2019-02-06T22:42:25.235Z,98465.64
2019-02-06T22:44:55.850Z,98464.92
2019-02-06T22:47:26.270Z,98456.06
2019-02-06T22:49:57.544Z,98467.67
2019-02-06T22:52:28.120Z,98466.23
2019-02-06T22:54:58.751Z,98470.89
2019-02-06T22:57:28.946Z,98457.27
2019-02-06T23:00:00.203Z,98460.09
2019-02-06T23:02:30.870Z,98457.31
2019-02-06T23:05:01.317Z,98462.59
2019-02-06T23:07:32.392Z,98462.92
2019-02-06T23:10:02.679Z,98458.94
2019-02-06T23:12:33.011Z,98449.06
2019-02-06T23:15:03.239Z,98452.33
2019-02-06T23:17:33.694Z,98447.89
2019-02-06T23:20:04.441Z,98446.35
2019-02-06T23:22:34.750Z,98436.38
2019-02-06T23:25:06.052Z,98432.85
2019-02-06T23:27:36.200Z,98421.46
2019-02-06T23:30:07.420Z,98408.98
2019-02-06T23:32:37.765Z,98398.77
2019-02-06T23:35:08.402Z,98396.41
2019-02-06T23:37:38.779Z,98397.28
2019-02-06T23:40:09.940Z,98388.16
2019-02-06T23:42:40.141Z,98390.80
2019-02-06T23:45:11.951Z,98382.66
2019-02-06T23:47:42.656Z,98372.73
2019-02-06T23:50:13.569Z,98365.30
2019-02-06T23:52:43.792Z,98361.35
2019-02-06T23:55:14.124Z,98353.16
2019-02-06T23:57:44.371Z,98353.06
